Irish Green, Utah
Current Conditions -  °F | °C
As of 11:55 AM on Thursday 30 Oct 2014 (Local Time) from KBDG Reporting Station
Clear Clear  
Wind Chill: 60°   Ceiling: Unl
Heat Index: 60°   Visibility: 10mi
Dew Point: 19°   Wind: 5mph
Humidity: 20%   Direction: 190°S
Pressure: 30.41"   Gusts: NA
Location:  37.6208°N, 109.479°W
Report Text: KBDG 301755Z AUTO 19004KT 10SM CLR 16/M07 A3041 RMK AO1 T01581073 10222 20005
Loading
Personal Weather Stations






























Interactive Weather Map
Tropical Storm Tracking
New forecast layout! Learn more

10-Day Weather Forecast

Advertisements
Track Severe Weather on mobile